Time;durP1;ratioP1;P1;durP2;ratioP2;P2;SDS_P1;SDS_P2;PMS_P1;PMS_P2;Temp;Humidity;BMP_temperature;BMP_pressure;BME280_temperature;BME280_humidity;BME280_pressure;Samples;Min_cycle;Max_cycle;Signal;HPM_P1;HPM_P2
2022/12/21 00:02:54;;;;;;;20.40;8.20;;;;;;;-0.28;90.58;98825.59;213728;1314;25372;-74
2022/12/21 00:07:56;;;;;;;17.00;7.80;;;;;;;-0.29;90.53;98809.92;213614;1313;22558;-75
2022/12/21 00:13:01;;;;;;;19.60;8.30;;;;;;;-0.29;90.86;98805.55;213586;1301;22487;-74
2022/12/21 00:18:03;;;;;;;17.30;7.80;;;;;;;-0.30;90.85;98810.73;213561;1314;22531;-75
2022/12/21 00:23:05;;;;;;;16.30;7.80;;;;;;;-0.30;91.00;98827.10;213362;1313;23382;-74
2022/12/21 00:28:06;;;;;;;18.30;8.50;;;;;;;-0.28;90.86;98822.67;213679;1314;25438;-76
2022/12/21 00:33:08;;;;;;;24.80;9.30;;;;;;;-0.29;90.85;98820.94;213777;1314;22504;-75
2022/12/21 00:38:10;;;;;;;23.90;9.50;;;;;;;-0.30;90.89;98810.49;213793;1313;22623;-75
2022/12/21 00:43:12;;;;;;;19.90;8.90;;;;;;;-0.33;90.69;98811.98;213373;1313;22467;-74
2022/12/21 00:48:18;;;;;;;21.60;8.90;;;;;;;-0.37;90.75;98825.66;213509;1314;22492;-75
2022/12/21 00:53:21;;;;;;;20.10;9.20;;;;;;;-0.41;90.84;98840.20;213594;1309;23751;-75
2022/12/21 00:58:25;;;;;;;17.00;7.90;;;;;;;-0.44;90.91;98821.63;213439;1313;25606;-75
2022/12/21 01:03:27;;;;;;;21.10;8.60;;;;;;;-0.46;90.91;98812.90;213631;1313;22488;-75
2022/12/21 01:08:29;;;;;;;17.40;7.80;;;;;;;-0.50;91.17;98800.38;213667;1308;22978;-74
2022/12/21 01:13:32;;;;;;;15.70;5.90;;;;;;;-0.53;91.22;98805.02;213574;1313;25502;-74
2022/12/21 01:18:34;;;;;;;20.50;6.80;;;;;;;-0.51;91.30;98796.02;213413;1313;25455;-75
2022/12/21 01:23:36;;;;;;;20.00;8.30;;;;;;;-0.52;91.33;98794.16;213337;1314;24369;-75
2022/12/21 01:28:38;;;;;;;20.50;9.10;;;;;;;-0.52;91.47;98801.53;213591;1301;24927;-74
2022/12/21 01:33:40;;;;;;;16.30;7.80;;;;;;;-0.54;91.42;98805.47;213538;1313;22490;-75
2022/12/21 01:38:45;;;;;;;15.20;6.60;;;;;;;-0.54;91.43;98812.02;213633;1313;22491;-74
2022/12/21 01:43:51;;;;;;;17.10;7.80;;;;;;;-0.54;91.59;98794.94;213265;1314;22490;-74
2022/12/21 01:49:12;;;;;;;16.70;8.40;;;;;;;-0.53;91.68;98780.43;213756;1314;23208;-73
2022/12/21 01:54:23;;;;;;;19.30;8.60;;;;;;;-0.52;91.83;98760.35;213703;1309;22523;-75
2022/12/21 01:59:45;;;;;;;;;;;;;;;-0.52;91.77;98749.06;213647;1313;24281;-75
2022/12/21 02:04:50;;;;;;;17.70;7.80;;;;;;;-0.48;91.72;98757.33;213628;1313;22586;-75
2022/12/21 02:09:53;;;;;;;16.30;7.60;;;;;;;-0.46;91.85;98750.70;213857;1313;23423;-75
2022/12/21 02:14:55;;;;;;;18.90;8.80;;;;;;;-0.43;91.91;98741.85;213610;1313;23262;-74
2022/12/21 02:20:17;;;;;;;19.20;7.50;;;;;;;-0.41;91.98;98738.48;213434;1313;23132;-75
2022/12/21 02:25:52;;;;;;;17.00;7.20;;;;;;;-0.41;92.16;98729.64;213635;1313;24090;-74
2022/12/21 02:31:02;;;;;;;13.50;6.50;;;;;;;-0.40;92.31;98735.88;213363;1312;22477;-73
2022/12/21 02:36:48;;;;;;;16.50;7.40;;;;;;;-0.42;92.24;98739.13;213706;1307;22636;-75
2022/12/21 02:42:01;;;;;;;16.80;7.50;;;;;;;-0.46;92.21;98734.74;213638;1314;22649;-75
2022/12/21 02:47:13;;;;;;;16.80;7.90;;;;;;;-0.46;92.52;98728.84;213541;1313;25628;-74
2022/12/21 02:52:39;;;;;;;14.30;7.60;;;;;;;-0.48;92.73;98722.05;213357;1313;24347;-75
2022/12/21 02:57:44;;;;;;;17.20;7.40;;;;;;;-0.50;92.94;98734.42;213315;1313;22474;-75
2022/12/21 03:08:52;;;;;;;18.00;8.40;;;;;;;-0.45;93.16;98745.83;213604;1313;22675;-79
2022/12/21 03:14:05;;;;;;;16.00;7.40;;;;;;;-0.42;93.42;98740.38;213330;1313;25571;-74
2022/12/21 03:19:10;;;;;;;16.90;8.70;;;;;;;-0.39;93.32;98739.73;213705;1313;24118;-73
2022/12/21 03:24:22;;;;;;;16.00;7.30;;;;;;;-0.37;93.22;98726.85;213961;1313;22479;-75
2022/12/21 03:29:33;;;;;;;13.30;6.60;;;;;;;-0.33;93.51;98729.13;213474;1313;22496;-75
2022/12/21 03:34:42;;;;;;;13.40;6.90;;;;;;;-0.30;93.69;98736.52;213665;1314;22480;-75
2022/12/21 03:39:50;;;;;;;16.40;7.50;;;;;;;-0.25;93.71;98729.39;213692;1312;24281;-74
2022/12/21 03:45:20;;;;;;;15.60;7.20;;;;;;;-0.23;93.91;98725.13;213442;1313;22567;-74
2022/12/21 03:50:24;;;;;;;;;;;;;;;-0.16;94.22;98724.73;213658;1314;22461;-75
2022/12/21 03:55:33;;;;;;;15.60;6.60;;;;;;;-0.05;94.77;98718.45;213562;1313;24414;-75
2022/12/21 04:00:44;;;;;;;16.40;5.60;;;;;;;0.05;94.66;98712.27;213548;1313;25072;-75
2022/12/21 04:05:56;;;;;;;13.90;6.40;;;;;;;0.17;94.85;98729.70;213667;1299;24250;-74
2022/12/21 04:10:58;;;;;;;13.30;7.00;;;;;;;0.27;94.77;98718.18;213274;1313;22503;-75
2022/12/21 04:16:05;;;;;;;12.10;5.60;;;;;;;0.33;94.68;98709.15;213755;1313;24330;-75
2022/12/21 04:21:07;;;;;;;12.40;6.50;;;;;;;0.34;94.64;98721.91;213549;1313;23352;-75
2022/12/21 04:31:30;;;;;;;9.40;4.90;;;;;;;0.32;94.47;98720.67;213605;1312;24358;-75
2022/12/21 04:41:53;;;;;;;15.40;6.80;;;;;;;0.38;94.79;98733.54;213551;1313;22781;-74
2022/12/21 04:46:55;;;;;;;9.80;4.60;;;;;;;0.43;94.84;98736.11;213746;1313;22523;-74
2022/12/21 04:51:56;;;;;;;14.90;6.60;;;;;;;0.47;94.81;98742.10;213443;1313;23229;-73
2022/12/21 04:56:58;;;;;;;16.90;7.60;;;;;;;0.47;94.78;98736.69;213445;1310;22509;-76
2022/12/21 05:02:00;;;;;;;15.20;7.30;;;;;;;0.50;94.88;98739.46;213667;1313;24351;-75
2022/12/21 05:07:03;;;;;;;14.90;6.50;;;;;;;0.53;94.58;98733.84;213597;1313;25341;-75
2022/12/21 05:12:05;;;;;;;17.50;7.90;;;;;;;0.56;94.86;98723.00;213532;1313;22479;-75
2022/12/21 05:17:07;;;;;;;15.80;6.70;;;;;;;0.58;94.85;98725.33;213458;1313;23687;-74
2022/12/21 05:22:09;;;;;;;15.60;7.40;;;;;;;0.61;94.87;98722.97;213528;1313;25464;-74
2022/12/21 05:27:12;;;;;;;12.20;6.90;;;;;;;0.64;94.73;98715.38;213589;1313;22501;-75
2022/12/21 05:32:14;;;;;;;14.10;6.60;;;;;;;0.66;94.69;98709.91;213356;1313;22479;-75
2022/12/21 05:37:16;;;;;;;18.80;8.80;;;;;;;0.69;94.89;98699.49;213624;1313;25286;-75
2022/12/21 05:42:17;;;;;;;17.20;7.70;;;;;;;0.72;94.63;98690.54;213633;1312;24119;-75
2022/12/21 05:47:19;;;;;;;17.50;8.30;;;;;;;0.74;94.80;98696.91;213737;1313;24272;-75
2022/12/21 05:52:21;;;;;;;17.60;8.10;;;;;;;0.76;94.85;98697.13;213553;1313;22521;-75
2022/12/21 05:57:23;;;;;;;16.50;7.50;;;;;;;0.79;95.13;98697.16;213542;1314;24579;-75
2022/12/21 06:02:25;;;;;;;16.60;7.60;;;;;;;0.81;94.91;98695.10;213764;1313;24472;-75
2022/12/21 06:07:26;;;;;;;19.60;8.40;;;;;;;0.82;94.85;98689.83;213345;1313;24966;-76
2022/12/21 06:12:30;;;;;;;21.70;8.40;;;;;;;0.83;95.00;98681.76;213722;1313;24105;-75
2022/12/21 06:17:31;;;;;;;22.60;9.30;;;;;;;0.83;94.96;98677.30;213475;1313;25324;-74
2022/12/21 06:22:34;;;;;;;15.70;7.80;;;;;;;0.81;95.33;98682.59;213479;1313;25322;-75
2022/12/21 06:27:36;;;;;;;20.60;8.90;;;;;;;0.81;95.75;98680.73;213635;1313;24131;-75
2022/12/21 06:32:39;;;;;;;18.30;8.50;;;;;;;0.81;95.48;98680.90;213419;1313;26393;-75
2022/12/21 06:37:41;;;;;;;19.20;9.10;;;;;;;0.81;95.30;98675.34;213700;1313;22513;-76
2022/12/21 06:42:42;;;;;;;22.70;8.50;;;;;;;0.82;95.22;98672.06;213761;1287;22487;-76
2022/12/21 06:47:44;;;;;;;19.40;8.90;;;;;;;0.82;95.27;98677.34;214038;1292;25267;-76
2022/12/21 06:52:47;;;;;;;21.50;9.40;;;;;;;0.83;95.24;98683.42;214271;1291;22565;-76
2022/12/21 06:57:49;;;;;;;22.80;8.80;;;;;;;0.84;95.35;98684.66;214232;1288;22658;-75
2022/12/21 07:02:50;;;;;;;18.40;8.50;;;;;;;0.87;95.31;98687.17;214009;1288;24311;-75
2022/12/21 07:07:52;;;;;;;20.70;9.10;;;;;;;0.91;95.11;98683.40;214263;1280;138763;-74
2022/12/21 07:12:54;;;;;;;18.50;8.60;;;;;;;0.93;95.25;98683.67;215041;1283;24263;-74
2022/12/21 07:17:56;;;;;;;20.40;8.90;;;;;;;0.93;95.18;98681.45;213988;1288;24236;-73
2022/12/21 07:22:58;;;;;;;22.20;9.40;;;;;;;0.94;95.12;98682.80;213939;1288;138184;-73
2022/12/21 07:27:59;;;;;;;20.50;9.90;;;;;;;0.97;95.07;98682.45;214011;1287;139200;-74
2022/12/21 07:33:01;;;;;;;18.90;9.70;;;;;;;1.02;95.07;98676.80;214133;1285;138329;-74
2022/12/21 07:38:03;;;;;;;20.00;8.90;;;;;;;1.08;94.94;98678.29;214092;1288;138370;-74
2022/12/21 07:43:09;;;;;;;19.20;9.00;;;;;;;1.13;94.89;98680.66;214026;1291;25329;-74
2022/12/21 07:48:17;;;;;;;19.20;9.80;;;;;;;1.17;94.86;98670.73;213947;1298;138683;-73
2022/12/21 07:53:19;;;;;;;24.10;9.70;;;;;;;1.19;94.98;98679.75;213797;1290;138769;-73
2022/12/21 07:58:21;;;;;;;19.90;9.30;;;;;;;1.23;94.97;98678.75;213824;1287;138527;-74
2022/12/21 08:03:22;;;;;;;16.30;6.90;;;;;;;1.27;94.99;98679.18;213850;1287;138394;-74
2022/12/21 08:08:24;;;;;;;18.80;8.70;;;;;;;1.31;95.07;98675.56;214139;1288;138381;-73
2022/12/21 08:13:27;;;;;;;19.80;9.00;;;;;;;1.39;94.88;98668.82;214493;1286;138468;-75
2022/12/21 08:18:29;;;;;;;18.00;8.80;;;;;;;1.46;94.67;98657.09;213992;1283;25273;-74
2022/12/21 08:23:31;;;;;;;16.40;7.80;;;;;;;1.54;94.39;98659.16;214061;1298;138103;-74
2022/12/21 08:28:33;;;;;;;16.40;8.80;;;;;;;1.58;94.05;98660.30;213983;1312;138917;-75
2022/12/21 08:33:35;;;;;;;18.80;8.20;;;;;;;1.63;94.08;98656.55;213730;1293;138828;-75
2022/12/21 08:38:37;;;;;;;18.10;8.50;;;;;;;1.69;93.92;98666.02;213851;1296;139008;-74
2022/12/21 08:43:59;;;;;;;11.70;6.10;;;;;;;1.76;93.69;98661.95;214070;1297;138514;-74
2022/12/21 08:49:01;;;;;;;15.40;6.70;;;;;;;1.83;93.52;98661.79;213963;1303;25183;-74
2022/12/21 08:54:04;;;;;;;17.20;8.40;;;;;;;1.92;93.00;98656.03;213891;1292;138192;-74
2022/12/21 08:59:07;;;;;;;17.60;7.70;;;;;;;1.98;93.05;98658.52;213898;1288;138443;-74
2022/12/21 09:04:09;;;;;;;16.90;7.90;;;;;;;2.02;92.91;98662.25;213857;1300;138488;-72
2022/12/21 09:09:11;;;;;;;17.30;7.60;;;;;;;2.04;92.62;98650.22;214067;1312;138578;-75
2022/12/21 09:14:13;;;;;;;18.00;8.40;;;;;;;2.06;92.65;98649.48;214190;1312;138444;-73
2022/12/21 09:19:15;;;;;;;18.20;7.80;;;;;;;2.12;92.37;98654.61;214076;1312;24275;-74
2022/12/21 09:24:17;;;;;;;15.80;7.40;;;;;;;2.17;92.14;98658.83;213995;1291;137955;-72
2022/12/21 09:29:22;;;;;;;14.00;7.30;;;;;;;2.22;92.02;98659.60;214073;1312;138182;-74
2022/12/21 09:34:23;;;;;;;17.60;8.00;;;;;;;2.26;91.79;98672.36;213956;1311;138886;-73
2022/12/21 09:39:25;;;;;;;16.30;7.70;;;;;;;2.31;91.78;98676.04;213873;1312;138507;-74
2022/12/21 09:44:31;;;;;;;16.40;8.40;;;;;;;2.35;91.49;98677.66;213938;1312;138386;-74
2022/12/21 09:50:18;;;;;;;16.10;8.50;;;;;;;2.43;91.66;98667.01;214052;1312;138508;-74
2022/12/21 09:55:23;;;;;;;17.30;8.20;;;;;;;2.47;91.28;98655.11;213369;1282;22618;-75
2022/12/21 10:00:35;;;;;;;13.90;6.80;;;;;;;2.51;91.39;98658.32;214146;1287;22983;-75
2022/12/21 10:05:57;;;;;;;14.80;6.90;;;;;;;2.51;91.06;98655.83;213795;1312;138202;-75
2022/12/21 10:11:11;;;;;;;20.20;7.90;;;;;;;2.46;91.24;98656.11;214360;1296;139124;-75
2022/12/21 10:16:35;;;;;;;17.20;7.40;;;;;;;2.42;91.46;98660.22;214165;1296;138461;-74
2022/12/21 10:22:14;;;;;;;15.20;7.20;;;;;;;2.40;91.54;98653.31;213901;1312;138397;-76
2022/12/21 10:27:23;;;;;;;17.10;8.10;;;;;;;2.38;91.59;98654.65;213539;1313;138399;-77
2022/12/21 10:32:30;;;;;;;15.10;7.50;;;;;;;2.36;91.77;98647.00;213911;1312;138409;-76
2022/12/21 10:37:38;;;;;;;13.60;7.30;;;;;;;2.35;91.65;98631.39;214144;1312;138629;-77
2022/12/21 10:42:49;;;;;;;17.10;6.90;;;;;;;2.36;91.80;98617.92;213917;1312;142581;-77
2022/12/21 10:47:51;;;;;;;14.90;7.20;;;;;;;2.41;91.70;98609.76;213746;1312;138347;-77
2022/12/21 10:52:55;;;;;;;17.20;8.40;;;;;;;2.53;91.84;98602.23;213679;1313;138341;-73
2022/12/21 10:58:24;;;;;;;17.10;9.30;;;;;;;2.69;91.73;98593.45;213814;1313;138735;-75
2022/12/21 11:03:29;;;;;;;16.10;8.00;;;;;;;2.81;91.21;98599.23;213883;1313;138652;-74
2022/12/21 11:08:32;;;;;;;18.90;9.00;;;;;;;2.80;90.72;98593.07;213991;1312;138436;-74
2022/12/21 11:13:40;;;;;;;19.10;8.90;;;;;;;2.84;90.99;98595.20;214513;1304;139071;-74
2022/12/21 11:18:47;;;;;;;20.00;8.90;;;;;;;2.94;90.92;98585.13;214044;1312;22523;-74
2022/12/21 11:23:55;;;;;;;17.20;8.70;;;;;;;2.99;90.52;98581.55;214011;1302;138071;-76
2022/12/21 11:28:59;;;;;;;18.10;9.10;;;;;;;3.01;90.62;98574.54;213737;1287;138452;-74
2022/12/21 11:34:01;;;;;;;19.10;8.90;;;;;;;3.05;90.66;98573.65;213887;1296;138423;-74
2022/12/21 11:39:15;;;;;;;20.00;10.80;;;;;;;3.08;90.37;98577.55;213807;1312;138453;-75
2022/12/21 11:44:22;;;;;;;18.00;8.60;;;;;;;3.08;90.06;98586.98;214408;1290;138540;-74
2022/12/21 11:49:39;;;;;;;17.30;8.90;;;;;;;3.10;90.04;98593.56;214011;1301;23240;-79
2022/12/21 11:54:56;;;;;;;18.40;8.90;;;;;;;3.08;90.00;98589.10;214136;1312;25344;-77
2022/12/21 12:00:05;;;;;;;18.70;9.10;;;;;;;3.02;90.00;98578.52;214018;1312;138672;-78
2022/12/21 12:05:48;;;;;;;15.30;8.00;;;;;;;2.91;90.40;98575.56;214059;1290;138277;-78
2022/12/21 12:10:53;;;;;;;18.00;8.60;;;;;;;2.84;90.94;98561.29;214416;1312;139053;-79
2022/12/21 12:16:03;;;;;;;19.70;8.40;;;;;;;2.81;91.08;98552.66;214358;1312;138538;-78
2022/12/21 12:21:32;;;;;;;18.10;9.00;;;;;;;2.73;91.26;98552.66;213871;1312;139028;-78
2022/12/21 12:26:52;;;;;;;17.10;8.80;;;;;;;2.59;91.58;98552.30;214188;1287;139132;-73
2022/12/21 12:32:12;;;;;;;18.30;8.80;;;;;;;2.44;91.98;98544.20;213912;1285;138951;-74
2022/12/21 12:37:33;;;;;;;12.80;6.90;;;;;;;2.32;92.40;98540.83;214100;1281;22486;-74
2022/12/21 12:42:42;;;;;;;19.80;8.50;;;;;;;2.23;93.13;98533.92;214147;1281;137950;-74
2022/12/21 12:47:47;;;;;;;19.10;8.60;;;;;;;2.17;93.07;98532.02;214158;1286;138747;-76
2022/12/21 12:53:03;;;;;;;19.20;8.50;;;;;;;2.14;93.33;98528.01;214092;1312;138361;-76
2022/12/21 12:58:16;;;;;;;20.10;9.00;;;;;;;2.07;93.83;98524.77;213945;1312;138540;-75
2022/12/21 13:03:55;;;;;;;21.70;10.50;;;;;;;2.02;94.13;98526.48;213916;1312;138409;-76
2022/12/21 13:09:12;;;;;;;24.10;11.60;;;;;;;2.06;94.72;98527.70;214217;1312;139845;-76
2022/12/21 13:14:32;;;;;;;20.90;9.90;;;;;;;2.11;94.77;98534.34;214491;1311;138674;-74
2022/12/21 13:19:39;;;;;;;18.70;9.60;;;;;;;2.11;94.73;98535.83;213837;1312;24367;-76
2022/12/21 13:25:11;;;;;;;23.60;10.60;;;;;;;2.12;94.81;98539.71;213962;1303;22653;-75
2022/12/21 13:30:22;;;;;;;22.90;10.70;;;;;;;2.06;94.96;98536.59;213913;1297;138453;-75
2022/12/21 13:35:30;;;;;;;21.50;10.10;;;;;;;1.95;95.47;98542.01;213874;1312;138494;-76
2022/12/21 13:40:39;;;;;;;20.90;10.10;;;;;;;1.87;95.57;98535.52;214047;1312;138569;-75
2022/12/21 13:45:51;;;;;;;24.70;11.20;;;;;;;1.81;95.94;98531.94;213773;1313;138583;-75
2022/12/21 13:51:29;;;;;;;24.80;11.60;;;;;;;1.77;96.21;98531.86;213689;1313;138977;-74
2022/12/21 13:56:49;;;;;;;22.80;10.50;;;;;;;1.73;96.51;98543.77;214032;1313;138697;-74
2022/12/21 14:02:07;;;;;;;20.90;10.00;;;;;;;1.67;97.03;98546.46;214052;1287;138528;-77
2022/12/21 14:07:31;;;;;;;20.90;10.20;;;;;;;1.62;97.52;98554.65;214116;1301;25332;-76
2022/12/21 14:12:43;;;;;;;20.60;9.90;;;;;;;1.58;97.84;98553.16;214893;1294;138069;-76
2022/12/21 14:17:47;;;;;;;24.80;10.00;;;;;;;1.52;98.42;98551.26;213948;1304;138925;-76
2022/12/21 14:22:49;;;;;;;22.60;10.60;;;;;;;1.49;98.77;98541.75;213897;1297;138915;-75
2022/12/21 14:28:28;;;;;;;61.50;29.40;;;;;;;1.46;98.58;98544.54;214041;1285;138767;-75
2022/12/21 14:33:45;;;;;;;31.80;13.20;;;;;;;1.50;99.09;98534.31;214085;1281;139059;-76
2022/12/21 14:39:09;;;;;;;26.00;11.20;;;;;;;1.49;99.55;98535.78;214118;1282;138681;-75
2022/12/21 14:44:23;;;;;;;23.80;12.30;;;;;;;1.47;99.50;98537.27;213980;1290;138611;-75
2022/12/21 14:49:31;;;;;;;24.10;10.50;;;;;;;1.42;99.43;98534.80;213989;1291;26511;-74
2022/12/21 14:54:36;;;;;;;22.80;11.00;;;;;;;1.34;99.47;98531.73;214017;1290;138585;-73
2022/12/21 14:59:41;;;;;;;26.50;11.50;;;;;;;1.29;99.80;98530.00;214087;1288;138888;-74
2022/12/21 15:05:01;;;;;;;22.40;10.20;;;;;;;1.26;99.93;98527.08;214008;1290;25363;-74
2022/12/21 15:10:23;;;;;;;22.30;11.20;;;;;;;1.20;100.00;98517.63;213593;1312;22459;-74
2022/12/21 15:15:45;;;;;;;28.70;12.00;;;;;;;1.17;100.00;98510.19;213538;1312;25445;-74
2022/12/21 15:20:53;;;;;;;23.40;9.40;;;;;;;1.16;100.00;98512.96;213783;1308;24278;-75
2022/12/21 15:26:23;;;;;;;25.40;11.20;;;;;;;1.14;100.00;98512.85;213473;1312;24366;-74
2022/12/21 15:31:39;;;;;;;27.80;11.60;;;;;;;1.16;100.00;98504.35;213697;1312;25337;-74
2022/12/21 15:36:48;;;;;;;26.00;12.50;;;;;;;1.16;100.00;98502.87;213642;1312;26454;-74
2022/12/21 15:42:40;;;;;;;26.60;11.80;;;;;;;1.12;100.00;98499.58;213969;1312;22745;-75
2022/12/21 15:48:13;;;;;;;27.30;11.70;;;;;;;1.10;100.00;98498.38;213150;1312;23913;-74
2022/12/21 15:53:22;;;;;;;25.50;12.10;;;;;;;1.10;100.00;98494.58;213589;1310;22496;-74
2022/12/21 15:58:28;;;;;;;30.60;12.30;;;;;;;1.10;100.00;98487.02;213642;1312;22497;-74
2022/12/21 16:03:34;;;;;;;31.80;15.10;;;;;;;1.10;100.00;98482.29;213741;1312;22477;-75
2022/12/21 16:08:39;;;;;;;33.70;13.70;;;;;;;1.10;100.00;98489.67;213562;1312;25229;-75
2022/12/21 16:13:41;;;;;;;29.80;12.90;;;;;;;1.10;100.00;98478.39;213418;1312;25284;-74
2022/12/21 16:18:43;;;;;;;32.50;13.60;;;;;;;1.09;100.00;98470.64;213413;1312;25351;-74
2022/12/21 16:23:49;;;;;;;31.70;13.30;;;;;;;1.11;100.00;98470.33;213698;1312;25476;-73
2022/12/21 16:28:54;;;;;;;32.60;13.30;;;;;;;1.15;100.00;98474.84;213641;1312;25121;-74
2022/12/21 16:34:02;;;;;;;33.60;14.10;;;;;;;1.19;100.00;98486.11;213797;1312;22464;-75
2022/12/21 16:39:04;;;;;;;29.10;12.40;;;;;;;1.24;100.00;98482.98;213573;1312;25026;-73
2022/12/21 16:44:12;;;;;;;29.30;13.40;;;;;;;1.28;100.00;98478.05;213748;1310;22499;-75
2022/12/21 16:49:26;;;;;;;30.10;12.80;;;;;;;1.32;100.00;98476.91;213785;1312;22647;-74
2022/12/21 16:54:41;;;;;;;28.10;11.90;;;;;;;1.35;100.00;98471.02;213908;1312;22475;-73
2022/12/21 16:59:46;;;;;;;24.80;11.20;;;;;;;1.36;100.00;98474.03;213932;1312;24919;-74
2022/12/21 17:04:49;;;;;;;30.50;13.70;;;;;;;1.36;100.00;98474.04;213868;1312;22519;-74
2022/12/21 17:09:59;;;;;;;28.00;11.90;;;;;;;1.36;100.00;98473.50;213537;1312;24313;-74
2022/12/21 17:15:19;;;;;;;;;;;;;;;1.37;100.00;98479.27;213652;1312;22520;-73
2022/12/21 17:20:32;;;;;;;27.40;12.00;;;;;;;1.39;100.00;98486.58;213637;1312;25383;-74
2022/12/21 17:25:45;;;;;;;33.30;14.50;;;;;;;1.41;100.00;98479.02;213792;1312;22506;-74
2022/12/21 17:30:49;;;;;;;31.40;12.40;;;;;;;1.42;100.00;98478.42;213793;1312;25478;-74
2022/12/21 17:35:52;;;;;;;32.00;13.10;;;;;;;1.43;100.00;98464.79;213606;1312;22641;-75
2022/12/21 17:40:54;;;;;;;27.40;13.10;;;;;;;1.43;100.00;98457.48;213775;1312;22639;-72
2022/12/21 17:45:56;;;;;;;31.60;15.20;;;;;;;1.43;100.00;98461.22;213609;1310;22638;-74
2022/12/21 17:50:57;;;;;;;29.70;13.20;;;;;;;1.45;100.00;98468.23;213766;1312;24318;-74
2022/12/21 17:55:59;;;;;;;32.80;13.60;;;;;;;1.47;100.00;98468.12;213609;1312;23057;-74
2022/12/21 18:01:01;;;;;;;32.00;14.40;;;;;;;1.46;100.00;98462.70;213638;1312;23792;-73
2022/12/21 18:06:03;;;;;;;35.40;15.50;;;;;;;1.43;100.00;98461.22;213851;1305;24637;-73
2022/12/21 18:11:05;;;;;;;32.00;15.10;;;;;;;1.41;100.00;98459.16;213459;1312;23094;-73
2022/12/21 18:16:32;;;;;;;33.30;15.00;;;;;;;1.38;100.00;98454.95;213696;1312;23197;-74
2022/12/21 18:21:35;;;;;;;35.80;15.10;;;;;;;1.34;100.00;98449.66;213734;1312;22614;-74
2022/12/21 18:26:36;;;;;;;39.90;16.90;;;;;;;1.34;100.00;98447.00;213767;1311;22497;-74
2022/12/21 18:31:38;;;;;;;40.40;17.00;;;;;;;1.33;100.00;98446.41;213709;1311;22556;-73
2022/12/21 18:36:40;;;;;;;37.80;16.50;;;;;;;1.35;100.00;98441.23;213579;1312;23644;-74
2022/12/21 18:41:42;;;;;;;41.10;16.90;;;;;;;1.37;100.00;98439.57;213638;1312;25224;-75
2022/12/21 18:46:47;;;;;;;34.20;13.90;;;;;;;1.40;100.00;98444.64;213670;1312;25694;-73
2022/12/21 18:51:49;;;;;;;33.80;15.20;;;;;;;1.45;100.00;98442.61;213611;1312;22526;-75
2022/12/21 18:56:52;;;;;;;37.40;15.20;;;;;;;1.51;100.00;98443.21;213770;1304;22474;-74
2022/12/21 19:01:58;;;;;;;31.00;13.80;;;;;;;1.57;100.00;98443.98;213562;1311;24364;-74
2022/12/21 19:07:00;;;;;;;28.00;13.30;;;;;;;1.61;100.00;98447.59;213873;1307;22514;-73
2022/12/21 19:12:02;;;;;;;30.70;14.40;;;;;;;1.63;100.00;98458.73;213841;1312;25503;-74
2022/12/21 19:17:04;;;;;;;30.10;12.80;;;;;;;1.65;100.00;98453.95;213597;1312;23518;-74
2022/12/21 19:22:18;;;;;;;32.10;13.30;;;;;;;1.65;100.00;98442.02;213575;1312;22606;-75
2022/12/21 19:27:20;;;;;;;28.20;12.10;;;;;;;1.65;100.00;98439.48;213656;1312;22627;-74
2022/12/21 19:32:21;;;;;;;32.20;13.20;;;;;;;1.67;100.00;98435.14;213856;1307;22533;-74
2022/12/21 19:37:25;;;;;;;27.30;12.10;;;;;;;1.66;100.00;98426.55;213810;1312;22490;-74
2022/12/21 19:42:31;;;;;;;24.30;11.40;;;;;;;1.66;100.00;98433.05;213836;1312;22534;-74
2022/12/21 19:47:33;;;;;;;26.80;11.60;;;;;;;1.69;100.00;98435.17;213819;1311;24290;-74
2022/12/21 19:52:34;;;;;;;27.70;12.60;;;;;;;1.69;100.00;98437.45;213581;1312;25026;-76
2022/12/21 19:57:39;;;;;;;31.90;13.90;;;;;;;1.70;100.00;98437.98;213747;1312;22615;-74
2022/12/21 20:02:42;;;;;;;35.90;14.10;;;;;;;1.70;100.00;98424.05;213746;1312;24175;-74
2022/12/21 20:07:46;;;;;;;29.50;12.80;;;;;;;1.73;100.00;98436.23;213659;1312;22484;-74
2022/12/21 20:12:49;;;;;;;27.20;11.40;;;;;;;1.75;100.00;98431.03;213709;1309;22481;-75
2022/12/21 20:17:52;;;;;;;25.40;12.00;;;;;;;1.76;100.00;98425.40;213651;1312;22523;-74
2022/12/21 20:22:54;;;;;;;30.70;12.20;;;;;;;1.76;100.00;98421.86;213959;1312;23202;-74
2022/12/21 20:27:56;;;;;;;26.80;12.00;;;;;;;1.77;100.00;98415.43;213729;1307;22572;-74
2022/12/21 20:33:01;;;;;;;28.80;12.80;;;;;;;1.77;100.00;98417.81;213783;1312;24442;-74
2022/12/21 20:38:17;;;;;;;24.90;11.80;;;;;;;1.75;100.00;98423.92;213631;1312;23223;-74
2022/12/21 20:43:46;;;;;;;26.20;11.20;;;;;;;1.74;100.00;98418.45;213828;1311;22498;-74
2022/12/21 20:48:49;;;;;;;30.10;13.00;;;;;;;1.72;100.00;98419.59;213747;1312;23635;-75
2022/12/21 20:53:52;;;;;;;30.50;11.80;;;;;;;1.72;100.00;98417.20;213766;1312;22476;-75
2022/12/21 20:58:56;;;;;;;26.20;11.60;;;;;;;1.70;100.00;98419.29;213559;1312;25027;-74
2022/12/21 21:03:58;;;;;;;23.70;12.20;;;;;;;1.71;100.00;98419.98;213604;1312;22462;-75
2022/12/21 21:09:01;;;;;;;28.20;11.10;;;;;;;1.70;100.00;98414.80;213695;1312;25229;-73
2022/12/21 21:14:03;;;;;;;22.60;10.80;;;;;;;1.68;100.00;98411.39;213636;1312;22540;-73
2022/12/21 21:19:06;;;;;;;24.50;11.30;;;;;;;1.68;100.00;98417.20;213517;1312;23032;-74
2022/12/21 21:24:28;;;;;;;25.80;11.90;;;;;;;1.69;100.00;98408.80;213620;1311;24282;-73
2022/12/21 21:29:29;;;;;;;26.90;12.30;;;;;;;1.68;100.00;98404.41;213672;1312;24347;-74
2022/12/21 21:34:32;;;;;;;25.80;11.80;;;;;;;1.67;100.00;98401.64;213737;1312;25410;-74
2022/12/21 21:45:00;;;;;;;30.10;11.40;;;;;;;1.64;100.00;98412.95;213516;1312;22474;-73
2022/12/21 21:50:28;;;;;;;30.20;12.10;;;;;;;1.63;100.00;98415.00;213701;1312;24282;-74
2022/12/21 21:55:30;;;;;;;29.30;12.40;;;;;;;1.64;100.00;98422.35;213661;1312;23916;-74
2022/12/21 22:00:32;;;;;;;34.30;13.60;;;;;;;1.62;100.00;98423.48;213842;1310;22524;-73
2022/12/21 22:05:33;;;;;;;27.40;12.10;;;;;;;1.59;100.00;98420.27;213540;1312;22475;-74
2022/12/21 22:10:37;;;;;;;31.50;12.40;;;;;;;1.57;100.00;98418.63;213839;1312;23810;-73
2022/12/21 22:15:43;;;;;;;32.30;14.00;;;;;;;1.55;100.00;98413.61;213623;1312;26468;-72
2022/12/21 22:42:27;;;;;;;23.60;11.80;;;;;;;1.60;100.00;98429.14;213532;1312;126950;-73
2022/12/21 22:47:29;;;;;;;22.60;11.10;;;;;;;1.61;100.00;98424.88;213842;1300;24075;-74
2022/12/21 22:52:32;;;;;;;33.80;13.30;;;;;;;1.61;100.00;98417.61;213920;1311;23744;-73
2022/12/21 22:57:35;;;;;;;26.40;12.20;;;;;;;1.61;100.00;98412.33;213641;1312;22522;-74
2022/12/21 23:02:37;;;;;;;29.80;11.90;;;;;;;1.62;100.00;98410.33;213882;1312;23739;-73
2022/12/21 23:07:39;;;;;;;31.80;13.30;;;;;;;1.62;100.00;98398.13;213825;1312;25377;-73
2022/12/21 23:18:31;;;;;;;32.60;12.90;;;;;;;1.60;100.00;98371.80;213704;1300;22474;-74
2022/12/21 23:28:53;;;;;;;32.70;13.80;;;;;;;1.52;100.00;98363.13;213774;1312;22545;-74
2022/12/21 23:44:44;;;;;;;34.30;15.60;;;;;;;1.45;100.00;98352.39;213746;1313;22505;-73
